Time;durP1;ratioP1;P1;durP2;ratioP2;P2;SDS_P1;SDS_P2;PMS_P1;PMS_P2;Temp;Humidity;BMP_temperature;BMP_pressure;BME280_temperature;BME280_humidity;BME280_pressure;Samples;Min_cycle;Max_cycle;Signal;HPM_P1;HPM_P2
2022/01/02 00:00:43;;;;;;;24.73;22.53;;;4.20;99.90;;;;;;5064357;28;20199;-76
2022/01/02 00:03:19;;;;;;;24.70;22.60;;;4.20;99.90;;;;;;5069225;28;20736;-76
2022/01/02 00:05:47;;;;;;;23.13;21.23;;;4.20;99.90;;;;;;5074388;28;20198;-77
2022/01/02 00:08:13;;;;;;;25.20;22.90;;;4.20;99.90;;;;;;5070568;28;20695;-77
2022/01/02 00:10:48;;;;;;;24.60;22.50;;;4.20;99.90;;;;;;5071318;28;20204;-76
2022/01/02 00:13:23;;;;;;;24.40;22.20;;;4.10;99.90;;;;;;5072479;28;20202;-76
2022/01/02 00:15:52;;;;;;;23.77;21.77;;;4.10;99.90;;;;;;5066568;28;20221;-76
2022/01/02 00:18:21;;;;;;;23.87;21.87;;;4.10;99.90;;;;;;5072193;28;20237;-77
2022/01/02 00:20:49;;;;;;;23.33;21.33;;;4.10;99.90;;;;;;5062611;28;20277;-77
2022/01/02 00:23:18;;;;;;;23.90;21.93;;;4.10;99.90;;;;;;5062561;28;20199;-77
2022/01/02 00:25:48;;;;;;;24.50;22.27;;;4.10;99.90;;;;;;5072103;28;20579;-76
2022/01/02 00:28:18;;;;;;;22.83;20.93;;;4.10;99.90;;;;;;5067607;28;20583;-77
2022/01/02 00:30:46;;;;;;;22.53;20.63;;;4.10;99.90;;;;;;5065624;28;20561;-76
2022/01/02 00:33:13;;;;;;;23.20;20.93;;;4.20;99.90;;;;;;5070408;28;20195;-76
2022/01/02 00:35:41;;;;;;;22.80;20.93;;;4.20;99.90;;;;;;5071934;28;20267;-76
2022/01/02 00:38:17;;;;;;;22.70;20.73;;;4.10;99.90;;;;;;5071833;28;20218;-76
2022/01/02 00:40:47;;;;;;;22.37;20.47;;;4.10;99.90;;;;;;5072166;28;20186;-76
2022/01/02 00:43:21;;;;;;;22.73;20.93;;;4.10;99.90;;;;;;5072126;28;20194;-77
2022/01/02 00:45:52;;;;;;;23.00;21.00;;;4.10;99.90;;;;;;5075255;28;20285;-76
2022/01/02 00:48:25;;;;;;;24.37;22.27;;;4.00;99.90;;;;;;5075552;28;20614;-76
2022/01/02 00:51:01;;;;;;;23.60;21.60;;;4.00;99.90;;;;;;5075971;28;20563;-77
2022/01/02 00:53:34;;;;;;;23.33;21.30;;;4.00;99.90;;;;;;5071201;28;20187;-76
2022/01/02 00:56:02;;;;;;;23.90;21.93;;;3.90;99.90;;;;;;5074714;28;20225;-76
2022/01/02 00:58:36;;;;;;;23.90;21.73;;;3.90;99.90;;;;;;5064953;28;20256;-76
2022/01/02 01:01:06;;;;;;;21.73;19.93;;;3.90;99.90;;;;;;5073695;28;20562;-77
2022/01/02 01:03:34;;;;;;;21.57;19.73;;;3.90;99.90;;;;;;5075708;28;20186;-76
2022/01/02 01:06:05;;;;;;;21.90;20.00;;;3.90;99.90;;;;;;5065957;28;20222;-76
2022/01/02 01:08:33;;;;;;;21.90;20.00;;;3.90;99.90;;;;;;5067524;28;20215;-77
2022/01/02 01:11:04;;;;;;;21.00;19.17;;;3.90;99.90;;;;;;5067546;28;20706;-76
2022/01/02 01:13:31;;;;;;;21.07;19.27;;;3.80;99.90;;;;;;5074814;28;20274;-76
2022/01/02 01:16:01;;;;;;;22.67;20.60;;;3.80;99.90;;;;;;5069776;28;20191;-76
2022/01/02 01:18:27;;;;;;;22.93;20.83;;;3.70;99.90;;;;;;5073153;28;20220;-76
2022/01/02 01:20:55;;;;;;;22.27;20.37;;;3.70;99.90;;;;;;5063021;28;20199;-76
2022/01/02 01:23:23;;;;;;;20.67;18.97;;;3.60;99.90;;;;;;5073959;28;20264;-77
2022/01/02 01:25:51;;;;;;;21.27;19.57;;;3.60;99.90;;;;;;5073735;28;20218;-76
2022/01/02 01:28:19;;;;;;;21.47;19.60;;;3.60;99.90;;;;;;5065020;28;20250;-76
2022/01/02 01:30:48;;;;;;;22.43;20.43;;;3.70;99.90;;;;;;5073739;28;20977;-76
2022/01/02 01:33:15;;;;;;;20.63;18.93;;;3.70;99.90;;;;;;5073556;28;20479;-76
2022/01/02 01:35:42;;;;;;;20.97;19.17;;;3.70;99.90;;;;;;5068689;28;20674;-76
2022/01/02 01:38:10;;;;;;;21.53;19.73;;;3.80;99.90;;;;;;5074524;28;20838;-76
2022/01/02 01:40:44;;;;;;;22.70;20.83;;;3.80;99.90;;;;;;5073737;28;20687;-76
2022/01/02 01:43:13;;;;;;;23.60;21.60;;;3.80;99.90;;;;;;5065315;28;20206;-76
2022/01/02 01:45:42;;;;;;;20.23;18.63;;;3.90;99.90;;;;;;5060914;28;20465;-76
2022/01/02 01:48:09;;;;;;;22.20;20.50;;;3.80;99.90;;;;;;5070469;28;20755;-77
2022/01/02 01:50:40;;;;;;;22.07;20.17;;;3.70;99.90;;;;;;5065221;28;20583;-76
2022/01/02 01:53:10;;;;;;;21.87;20.10;;;3.70;99.90;;;;;;5073525;28;20204;-76
2022/01/02 01:55:41;;;;;;;22.70;20.67;;;3.60;99.90;;;;;;5070602;28;20226;-76
2022/01/02 01:58:08;;;;;;;23.10;21.10;;;3.50;99.90;;;;;;5069773;28;20984;-76
2022/01/02 02:00:40;;;;;;;22.00;20.20;;;3.50;99.90;;;;;;5064661;28;20464;-76
2022/01/02 02:03:16;;;;;;;23.90;21.83;;;3.40;99.90;;;;;;5073129;28;20225;-76
2022/01/02 02:05:44;;;;;;;21.30;19.43;;;3.40;99.90;;;;;;5067375;28;20217;-77
2022/01/02 02:08:11;;;;;;;22.60;20.50;;;3.40;99.90;;;;;;5070283;28;20214;-76
2022/01/02 02:10:41;;;;;;;22.60;20.60;;;3.30;99.90;;;;;;5074295;28;20437;-76
2022/01/02 02:13:13;;;;;;;23.50;21.50;;;3.30;99.90;;;;;;5071573;28;20445;-76
2022/01/02 02:15:46;;;;;;;23.50;21.57;;;3.20;99.90;;;;;;5063360;28;20293;-76
2022/01/02 02:18:14;;;;;;;22.70;20.87;;;3.10;99.90;;;;;;5071999;28;20214;-76
2022/01/02 02:20:43;;;;;;;22.40;20.70;;;3.10;99.90;;;;;;5067648;28;20195;-76
2022/01/02 02:23:22;;;;;;;23.73;21.63;;;3.10;99.90;;;;;;5064422;28;20203;-76
2022/01/02 02:25:49;;;;;;;22.90;20.90;;;3.00;99.90;;;;;;5060208;28;21009;-76
2022/01/02 02:28:17;;;;;;;23.53;21.53;;;3.00;99.90;;;;;;5071766;28;20983;-77
2022/01/02 02:30:49;;;;;;;23.57;21.57;;;3.00;99.90;;;;;;5072739;28;20529;-76
2022/01/02 02:33:17;;;;;;;22.87;20.70;;;2.90;99.90;;;;;;5064360;28;20461;-77
2022/01/02 02:35:48;;;;;;;23.17;21.23;;;2.90;99.90;;;;;;5066644;28;20532;-76
2022/01/02 02:38:18;;;;;;;22.37;20.57;;;2.90;99.90;;;;;;5056635;28;20215;-76
2022/01/02 02:40:47;;;;;;;22.30;20.50;;;2.80;99.90;;;;;;5066402;28;20448;-76
2022/01/02 02:43:25;;;;;;;24.13;21.93;;;2.90;99.90;;;;;;5070506;28;20249;-77
2022/01/02 02:51:33;;;;;;;23.43;21.30;;;2.80;99.90;;;;;;5066002;28;20465;-76
2022/01/02 02:54:00;;;;;;;22.80;20.90;;;2.80;99.90;;;;;;5063816;28;20547;-76
2022/01/02 02:56:30;;;;;;;22.93;20.93;;;2.70;99.90;;;;;;5062177;28;20440;-76
2022/01/02 02:58:58;;;;;;;22.50;20.50;;;2.70;99.90;;;;;;5073091;28;20464;-76
2022/01/02 03:01:29;;;;;;;22.03;20.23;;;2.60;99.90;;;;;;5066760;28;20521;-76
2022/01/02 03:03:58;;;;;;;21.43;19.70;;;2.60;99.90;;;;;;5065089;28;20896;-76
2022/01/02 03:06:27;;;;;;;20.90;19.03;;;2.60;99.90;;;;;;5062765;28;20469;-76
2022/01/02 03:08:54;;;;;;;21.00;19.30;;;2.50;99.90;;;;;;5072961;28;20453;-76
2022/01/02 03:11:24;;;;;;;23.60;21.60;;;2.50;99.90;;;;;;5063782;28;20831;-76
2022/01/02 03:13:55;;;;;;;21.93;20.13;;;2.50;99.90;;;;;;5071718;28;20484;-76
2022/01/02 03:16:22;;;;;;;21.17;19.47;;;2.50;99.90;;;;;;5072221;28;20461;-76
2022/01/02 03:18:49;;;;;;;21.57;19.77;;;2.60;99.90;;;;;;5072339;28;20522;-76
2022/01/02 03:21:17;;;;;;;22.40;20.50;;;2.60;99.90;;;;;;5072205;28;20820;-76
2022/01/02 03:23:45;;;;;;;21.07;19.50;;;2.70;99.90;;;;;;5065218;28;20535;-76
2022/01/02 03:26:12;;;;;;;23.33;21.43;;;2.70;99.90;;;;;;5070676;28;20456;-76
2022/01/02 03:28:39;;;;;;;23.60;21.60;;;2.70;99.90;;;;;;5066604;28;20564;-76
2022/01/02 03:31:06;;;;;;;21.63;19.87;;;2.70;99.90;;;;;;5067499;28;20936;-76
2022/01/02 03:33:35;;;;;;;21.77;19.97;;;2.60;99.90;;;;;;5067430;28;20891;-76
2022/01/02 03:36:04;;;;;;;22.13;20.33;;;2.60;99.90;;;;;;5070617;28;20554;-76
2022/01/02 03:38:31;;;;;;;22.80;21.00;;;2.60;99.90;;;;;;5071621;28;20502;-76
2022/01/02 03:40:59;;;;;;;21.90;20.10;;;2.60;99.90;;;;;;5071959;28;20919;-76
2022/01/02 03:43:27;;;;;;;21.50;19.70;;;2.60;99.90;;;;;;5067392;28;20443;-77
2022/01/02 03:45:54;;;;;;;21.60;19.80;;;2.60;99.90;;;;;;5064175;28;20476;-76
2022/01/02 03:48:21;;;;;;;20.50;18.70;;;2.60;99.90;;;;;;5059544;28;20479;-75
2022/01/02 03:50:48;;;;;;;22.07;20.23;;;2.60;99.90;;;;;;5070593;28;20478;-75
2022/01/02 03:53:25;;;;;;;20.20;18.53;;;2.60;99.90;;;;;;5061550;28;20452;-78
2022/01/02 03:55:53;;;;;;;21.43;19.63;;;2.70;99.90;;;;;;5059260;28;20433;-79
2022/01/02 03:58:21;;;;;;;19.97;18.50;;;2.70;99.90;;;;;;5059504;28;20485;-75
2022/01/02 04:00:48;;;;;;;22.10;20.17;;;2.60;99.90;;;;;;5071456;28;20501;-75
2022/01/02 04:03:16;;;;;;;21.50;19.63;;;2.70;99.90;;;;;;5068030;28;20806;-75
2022/01/02 04:05:43;;;;;;;20.60;19.10;;;2.70;99.90;;;;;;5061623;28;20455;-75
2022/01/02 04:08:11;;;;;;;20.13;18.63;;;2.70;99.90;;;;;;5061523;28;20895;-76
2022/01/02 04:10:39;;;;;;;21.37;19.60;;;2.70;99.90;;;;;;5064522;28;20941;-76
2022/01/02 04:13:07;;;;;;;20.20;18.60;;;2.80;99.90;;;;;;5069905;28;20454;-76
2022/01/02 04:15:38;;;;;;;20.97;19.17;;;2.70;99.90;;;;;;5059994;28;20452;-76
2022/01/02 04:18:07;;;;;;;20.80;19.10;;;2.70;99.90;;;;;;5064027;28;20483;-75
2022/01/02 04:20:34;;;;;;;20.40;18.70;;;2.60;99.90;;;;;;5060013;28;20529;-77
2022/01/02 04:23:01;;;;;;;20.63;18.93;;;2.60;99.90;;;;;;5068128;28;20514;-76
2022/01/02 04:25:28;;;;;;;19.70;18.30;;;2.60;99.90;;;;;;5067969;28;20446;-76
2022/01/02 04:27:55;;;;;;;20.47;18.73;;;2.60;99.90;;;;;;5070743;28;20568;-76
2022/01/02 04:30:22;;;;;;;20.77;19.17;;;2.60;99.90;;;;;;5071460;28;21246;-76
2022/01/02 04:32:52;;;;;;;19.50;18.00;;;2.70;99.90;;;;;;5065117;28;20457;-77
2022/01/02 04:35:20;;;;;;;20.00;18.50;;;2.80;99.90;;;;;;5064489;28;20534;-76
2022/01/02 04:37:47;;;;;;;19.47;17.97;;;2.80;99.90;;;;;;5063409;28;21039;-76
2022/01/02 04:40:14;;;;;;;20.50;18.87;;;2.80;99.90;;;;;;5056161;28;20500;-77
2022/01/02 04:42:42;;;;;;;20.50;18.90;;;2.90;99.90;;;;;;5066414;28;20453;-76
2022/01/02 04:45:10;;;;;;;19.37;17.97;;;3.00;99.90;;;;;;5068008;28;20908;-78
2022/01/02 04:47:37;;;;;;;20.47;18.87;;;3.00;99.90;;;;;;5065794;28;20468;-76
2022/01/02 04:50:07;;;;;;;20.80;19.20;;;3.00;99.90;;;;;;5067178;28;20481;-76
2022/01/02 04:52:34;;;;;;;21.17;19.40;;;3.10;99.90;;;;;;5067674;28;20945;-76
2022/01/02 04:55:01;;;;;;;21.43;19.93;;;3.10;99.90;;;;;;5069493;28;20452;-76
2022/01/02 04:57:29;;;;;;;20.97;19.47;;;3.00;99.90;;;;;;5066728;28;20820;-77
2022/01/02 04:59:56;;;;;;;21.27;19.77;;;3.00;99.90;;;;;;5065525;28;20469;-76
2022/01/02 05:02:23;;;;;;;22.10;20.20;;;3.00;99.90;;;;;;5053717;28;20890;-77
2022/01/02 05:04:53;;;;;;;21.47;19.73;;;3.00;99.90;;;;;;5063115;28;20448;-77
2022/01/02 05:07:21;;;;;;;20.73;19.10;;;3.00;99.90;;;;;;5067807;28;20786;-76
2022/01/02 05:09:48;;;;;;;21.63;19.90;;;2.90;99.90;;;;;;5067903;28;20801;-75
2022/01/02 05:12:15;;;;;;;20.90;19.40;;;2.90;99.90;;;;;;5069766;28;20868;-76
2022/01/02 05:14:42;;;;;;;21.70;19.90;;;2.90;99.90;;;;;;5060654;28;20460;-75
2022/01/02 05:17:10;;;;;;;20.77;19.17;;;2.90;99.90;;;;;;5068707;28;20437;-76
2022/01/02 05:19:37;;;;;;;21.70;19.90;;;2.90;99.90;;;;;;5058199;28;20526;-76
2022/01/02 05:22:04;;;;;;;20.10;18.53;;;2.90;99.90;;;;;;5066272;28;20232;-75
2022/01/02 05:24:33;;;;;;;19.87;18.43;;;3.00;99.90;;;;;;5060393;28;21012;-76
2022/01/02 05:27:00;;;;;;;20.57;18.83;;;3.00;99.90;;;;;;5062650;28;20530;-77
2022/01/02 05:29:27;;;;;;;20.93;19.37;;;3.10;99.90;;;;;;5063750;28;20987;-76
2022/01/02 05:31:55;;;;;;;20.43;18.93;;;3.10;99.90;;;;;;5064060;28;20445;-77
2022/01/02 05:34:22;;;;;;;19.50;18.03;;;3.10;99.90;;;;;;5091303;22;20484;-80
2022/01/02 05:36:49;;;;;;;20.20;18.70;;;3.10;99.90;;;;;;5074683;28;20202;-82
2022/01/02 05:39:18;;;;;;;20.60;19.00;;;3.10;99.90;;;;;;5075843;28;20540;-79
2022/01/02 05:41:48;;;;;;;19.40;18.00;;;3.10;99.90;;;;;;5079794;28;20520;-81
2022/01/02 05:44:17;;;;;;;20.00;18.60;;;3.00;99.90;;;;;;5063277;28;20445;-81
2022/01/02 05:46:44;;;;;;;19.67;18.20;;;3.00;99.90;;;;;;5090969;28;20463;-80
2022/01/02 05:49:13;;;;;;;19.50;18.00;;;2.90;99.90;;;;;;5064585;28;20441;-83
2022/01/02 05:51:41;;;;;;;19.20;17.80;;;2.90;99.90;;;;;;5070415;28;20527;-80
2022/01/02 05:54:08;;;;;;;19.23;17.73;;;2.90;99.90;;;;;;5076134;28;20432;-81
2022/01/02 05:56:35;;;;;;;18.97;17.47;;;2.90;99.90;;;;;;5069282;28;20544;-77
2022/01/02 05:59:04;;;;;;;18.50;16.93;;;2.90;99.90;;;;;;5056417;28;20477;-83
2022/01/02 06:01:32;;;;;;;17.33;15.93;;;2.90;99.90;;;;;;5063396;28;20463;-85
2022/01/02 06:04:00;;;;;;;17.50;16.20;;;3.00;99.90;;;;;;5071809;28;20447;-85
2022/01/02 06:06:27;;;;;;;18.00;16.50;;;3.00;99.90;;;;;;5073835;28;20541;-85
2022/01/02 06:08:54;;;;;;;17.87;16.67;;;3.20;99.90;;;;;;5068942;28;20211;-80
2022/01/02 06:11:21;;;;;;;18.70;17.40;;;3.20;99.90;;;;;;5065187;28;20457;-86
2022/01/02 06:13:48;;;;;;;17.83;16.57;;;3.30;99.90;;;;;;5069113;28;20514;-87
2022/01/02 06:16:36;;;;;;;19.07;17.77;;;3.30;99.90;;;;;;5087496;28;20498;-82
2022/01/02 06:23:17;;;;;;;18.07;16.93;;;3.50;99.90;;;;;;4961739;28;20530;-86
2022/01/02 06:26:08;;;;;;;19.37;18.07;;;3.50;99.90;;;;;;5047586;28;20800;-84
2022/01/02 06:28:36;;;;;;;17.70;16.50;;;3.50;99.90;;;;;;5070128;28;20225;-81
2022/01/02 06:31:03;;;;;;;18.10;16.70;;;3.50;99.90;;;;;;5069780;28;20297;-81
2022/01/02 06:33:33;;;;;;;18.33;17.13;;;3.50;99.90;;;;;;5092454;28;20199;-81
2022/01/02 06:35:59;;;;;;;18.33;17.20;;;3.50;99.90;;;;;;5071433;28;20246;-82
2022/01/02 06:38:26;;;;;;;18.53;17.27;;;3.50;99.90;;;;;;5068144;28;20444;-81
2022/01/02 06:40:56;;;;;;;17.57;16.33;;;3.50;99.90;;;;;;5070814;28;20194;-80
2022/01/02 06:43:23;;;;;;;18.03;16.83;;;3.40;99.90;;;;;;5069938;28;21088;-83
2022/01/02 06:45:51;;;;;;;18.43;17.23;;;3.50;99.90;;;;;;5070825;28;20223;-81
2022/01/02 06:48:18;;;;;;;19.27;18.07;;;3.50;99.90;;;;;;5067164;28;20473;-81
2022/01/02 06:50:47;;;;;;;18.47;17.17;;;3.50;99.90;;;;;;5074959;28;20886;-79
2022/01/02 06:53:14;;;;;;;18.30;17.10;;;3.50;99.90;;;;;;5067135;28;20551;-81
2022/01/02 06:55:42;;;;;;;19.30;18.03;;;3.50;99.90;;;;;;5065782;28;20465;-81
2022/01/02 06:58:10;;;;;;;18.67;17.47;;;3.60;99.90;;;;;;5057163;28;20237;-83
2022/01/02 07:15:09;;;;;;;22.57;21.07;;;4.00;99.90;;;;;;5021575;28;20227;-79
2022/01/02 07:17:36;;;;;;;20.53;18.83;;;4.10;99.90;;;;;;5049243;28;20455;-79
2022/01/02 07:20:25;;;;;;;19.60;18.20;;;4.10;99.90;;;;;;5067405;28;20199;-82
2022/01/02 07:23:41;;;;;;;21.13;19.57;;;4.10;99.90;;;;;;5082261;28;20190;-82
2022/01/02 07:37:50;;;;;;;18.97;17.57;;;4.40;99.90;;;;;;5019045;28;20213;-83
2022/01/02 07:40:23;;;;;;;18.33;17.03;;;4.50;99.90;;;;;;5064397;28;20643;-83
2022/01/02 07:43:01;;;;;;;18.93;17.43;;;4.50;99.90;;;;;;5073068;28;20248;-82
2022/01/02 07:45:32;;;;;;;14.23;13.10;;;4.50;99.90;;;;;;5080243;28;20221;-83
2022/01/02 07:48:29;;;;;;;9.47;7.73;;;4.40;99.90;;;;;;5068943;28;20216;-83
2022/01/02 07:53:54;;;;;;;8.73;7.10;;;4.50;99.90;;;;;;5050712;28;20206;-85
2022/01/02 07:56:22;;;;;;;16.53;15.23;;;4.50;99.90;;;;;;5073748;28;20232;-85
2022/01/02 07:58:49;;;;;;;14.00;12.70;;;4.60;99.90;;;;;;5074086;28;20218;-84
2022/01/02 08:01:17;;;;;;;17.40;16.20;;;4.60;99.90;;;;;;5068801;28;20712;-84
2022/01/02 08:04:10;;;;;;;16.07;14.97;;;4.70;99.90;;;;;;5072856;28;20636;-82
2022/01/02 08:11:09;;;;;;;16.77;15.57;;;4.80;99.90;;;;;;5016908;28;20352;-82
2022/01/02 08:28:54;;;;;;;16.60;15.43;;;5.20;99.90;;;;;;4871978;29;20256;-81
2022/01/02 08:34:54;;;;;;;15.57;14.57;;;5.40;99.90;;;;;;5024465;28;20294;-83
2022/01/02 08:37:36;;;;;;;17.30;16.20;;;5.60;99.90;;;;;;5074771;28;20210;-84
2022/01/02 08:40:07;;;;;;;16.03;14.83;;;5.80;99.90;;;;;;5070676;28;20190;-83
2022/01/02 08:42:43;;;;;;;15.30;14.37;;;5.90;99.90;;;;;;5066056;28;20197;-84
2022/01/02 08:45:51;;;;;;;;;;;;;;;;;;;;;
2022/01/02 08:49:18;;;;;;;15.07;14.17;;;6.00;99.90;;;;;;5065304;28;20225;-82
2022/01/02 09:02:02;;;;;;;13.90;12.90;;;6.90;99.90;;;;;;5054808;28;20239;-84
2022/01/02 09:05:16;;;;;;;15.00;14.03;;;7.00;99.90;;;;;;5068000;28;20581;-82
2022/01/02 09:08:27;;;;;;;5.60;4.50;;;7.20;99.90;;;;;;5057535;28;20261;-83
2022/01/02 09:18:06;;;;;;;14.73;13.73;;;7.10;99.90;;;;;;5133515;22;20275;-83
2022/01/02 09:21:39;;;;;;;13.80;12.80;;;7.00;99.90;;;;;;5034435;28;20727;-81
2022/01/02 09:28:20;;;;;;;;;;;;;;;;;;;;;
2022/01/02 09:31:49;;;;;;;16.40;15.30;;;7.40;99.90;;;;;;4962889;28;20655;-83
2022/01/02 09:38:42;;;;;;;15.30;14.10;;;7.70;99.90;;;;;;4929792;28;20301;-84
2022/01/02 09:49:13;;;;;;;12.00;10.90;;;8.00;99.90;;;;;;5026988;28;20274;-84
2022/01/02 09:52:00;;;;;;;12.13;11.23;;;8.10;99.90;;;;;;5060526;28;20213;-83
2022/01/02 09:54:57;;;;;;;11.70;10.90;;;8.10;99.90;;;;;;5096318;28;20221;-83
2022/01/02 10:01:24;;;;;;;13.37;12.57;;;8.10;99.90;;;;;;5096062;28;20375;-83
2022/01/02 10:03:57;;;;;;;14.43;13.43;;;8.10;99.90;;;;;;5093158;28;20279;-83
2022/01/02 10:06:40;;;;;;;14.23;13.23;;;8.10;99.90;;;;;;5083467;28;20201;-83
2022/01/02 10:09:14;;;;;;;14.80;13.77;;;8.00;99.90;;;;;;5095412;28;20213;-83
2022/01/02 10:11:44;;;;;;;13.80;12.87;;;8.10;99.90;;;;;;5086785;28;20202;-83
2022/01/02 10:14:20;;;;;;;13.77;12.80;;;8.20;99.90;;;;;;5086362;28;20204;-84
2022/01/02 10:17:13;;;;;;;14.30;13.30;;;8.30;99.90;;;;;;5108306;28;20689;-82
2022/01/02 10:20:38;;;;;;;14.13;13.10;;;8.40;99.90;;;;;;5087194;28;20225;-84
2022/01/02 10:27:08;;;;;;;14.43;13.43;;;8.70;99.90;;;;;;5090280;28;20621;-85
2022/01/02 10:30:22;;;;;;;14.33;13.43;;;8.80;99.90;;;;;;5079662;28;20240;-84
2022/01/02 10:36:37;;;;;;;12.50;11.60;;;8.90;99.90;;;;;;5005467;28;20211;-84
2022/01/02 10:39:12;;;;;;;12.63;11.83;;;8.80;99.90;;;;;;5014926;28;20218;-81
2022/01/02 10:42:30;;;;;;;13.63;12.73;;;8.80;99.90;;;;;;5085606;28;20193;-81
2022/01/02 10:45:07;;;;;;;13.20;12.30;;;8.80;99.90;;;;;;5090173;28;20231;-84
2022/01/02 10:47:45;;;;;;;12.70;11.90;;;8.70;99.90;;;;;;5091744;28;20632;-82
2022/01/02 10:50:28;;;;;;;13.50;12.60;;;8.70;99.90;;;;;;5092374;28;20233;-82
2022/01/02 10:53:37;;;;;;;13.50;12.57;;;8.60;99.90;;;;;;5082004;28;20609;-82
2022/01/02 10:56:38;;;;;;;14.33;13.43;;;8.60;99.90;;;;;;5098980;28;20304;-83
2022/01/02 11:01:54;;;;;;;7.40;5.20;;;8.60;99.90;;;;;;5092911;28;20630;-83
2022/01/02 11:07:40;;;;;;;7.03;5.60;;;8.90;99.90;;;;;;5090549;28;20209;-80
2022/01/02 11:10:10;;;;;;;6.50;5.80;;;9.10;99.90;;;;;;5094143;28;20205;-80
2022/01/02 11:12:39;;;;;;;6.17;5.30;;;9.20;99.90;;;;;;5086312;28;20210;-82
2022/01/02 11:15:42;;;;;;;5.73;4.80;;;9.30;99.90;;;;;;5083332;28;20222;-81
2022/01/02 11:21:57;;;;;;;6.13;5.53;;;9.40;99.90;;;;;;5085011;28;20261;-82
2022/01/02 11:25:32;;;;;;;9.70;8.83;;;9.60;99.90;;;;;;5086988;28;20218;-82
2022/01/02 11:34:27;;;;;;;9.00;8.07;;;9.70;99.90;;;;;;5068131;22;20214;-79
2022/01/02 11:37:14;;;;;;;8.27;7.57;;;9.70;99.90;;;;;;5050643;28;20205;-80
2022/01/02 11:39:57;;;;;;;7.50;6.80;;;9.70;99.90;;;;;;5043835;28;20195;-79
2022/01/02 11:42:44;;;;;;;8.40;7.43;;;9.70;99.90;;;;;;5046858;28;20221;-79
2022/01/02 11:45:27;;;;;;;11.70;10.90;;;9.80;99.90;;;;;;5047265;28;20309;-79
2022/01/02 11:47:56;;;;;;;16.20;15.20;;;9.80;99.90;;;;;;5049514;28;20207;-79
2022/01/02 11:50:45;;;;;;;6.30;5.70;;;9.80;99.90;;;;;;5050656;28;20534;-78
2022/01/02 11:53:23;;;;;;;15.00;14.00;;;9.80;99.90;;;;;;5051692;28;20652;-79
2022/01/02 11:55:56;;;;;;;13.20;12.20;;;9.80;99.90;;;;;;5047706;28;20231;-78
2022/01/02 11:58:50;;;;;;;15.40;14.30;;;9.70;99.90;;;;;;5048026;28;20230;-78
2022/01/02 12:01:48;;;;;;;14.10;13.10;;;9.60;99.90;;;;;;5044178;28;20708;-79
2022/01/02 12:04:16;;;;;;;8.23;7.43;;;9.60;99.90;;;;;;5049985;28;20238;-78
2022/01/02 12:06:45;;;;;;;12.63;11.73;;;9.60;99.90;;;;;;5048114;28;20229;-79
2022/01/02 12:09:39;;;;;;;8.17;7.37;;;9.60;99.90;;;;;;5049863;28;20302;-78
2022/01/02 12:12:08;;;;;;;11.47;10.57;;;9.60;99.90;;;;;;5050518;28;20249;-78
2022/01/02 12:14:53;;;;;;;7.23;6.57;;;9.70;99.90;;;;;;5049970;28;20203;-78
2022/01/02 12:17:23;;;;;;;8.37;7.60;;;9.80;99.90;;;;;;5049922;28;20206;-79
2022/01/02 12:20:07;;;;;;;5.70;5.10;;;10.00;99.90;;;;;;5053012;28;20191;-77
2022/01/02 12:22:46;;;;;;;4.50;4.10;;;10.30;99.90;;;;;;5043845;28;20200;-78
2022/01/02 12:25:19;;;;;;;8.60;8.00;;;10.50;99.90;;;;;;5048805;28;20234;-78
2022/01/02 12:27:52;;;;;;;7.73;7.13;;;10.70;99.90;;;;;;5050500;28;20688;-78
2022/01/02 12:30:20;;;;;;;8.47;7.87;;;10.80;99.90;;;;;;5049996;28;20207;-78
2022/01/02 12:32:48;;;;;;;6.30;5.90;;;10.90;99.90;;;;;;5050459;28;20711;-78
2022/01/02 12:35:16;;;;;;;12.77;11.87;;;11.00;99.90;;;;;;5051352;28;20227;-78
2022/01/02 12:37:43;;;;;;;4.97;4.47;;;11.20;99.90;;;;;;5048417;28;20291;-78
2022/01/02 12:40:15;;;;;;;5.00;4.50;;;11.20;99.90;;;;;;5052885;28;20187;-78
2022/01/02 12:42:42;;;;;;;5.77;5.23;;;11.30;99.90;;;;;;5055432;28;20242;-78
2022/01/02 12:45:11;;;;;;;5.37;4.87;;;11.40;99.90;;;;;;5053745;28;20755;-78
2022/01/02 12:47:49;;;;;;;8.07;7.27;;;11.50;99.90;;;;;;5055118;28;20195;-77
2022/01/02 12:50:27;;;;;;;7.67;7.07;;;11.60;99.90;;;;;;5050248;28;20247;-78
2022/01/02 12:52:55;;;;;;;12.20;11.40;;;11.60;99.90;;;;;;5056882;28;20198;-78
2022/01/02 12:55:23;;;;;;;5.17;4.77;;;11.80;99.90;;;;;;5053382;28;20230;-78
2022/01/02 12:57:50;;;;;;;7.00;6.50;;;11.80;99.90;;;;;;5055042;28;20204;-78
2022/01/02 13:00:23;;;;;;;5.40;5.03;;;11.90;99.90;;;;;;5048210;28;20191;-78
2022/01/02 13:02:53;;;;;;;6.77;6.27;;;11.90;99.90;;;;;;5055213;28;20196;-83
2022/01/02 13:05:28;;;;;;;3.60;3.30;;;11.90;99.90;;;;;;5041198;28;20215;-81
2022/01/02 13:08:05;;;;;;;3.93;3.10;;;12.00;99.90;;;;;;5050993;28;20334;-81
2022/01/02 13:10:41;;;;;;;3.47;3.10;;;12.10;99.90;;;;;;5055108;28;20197;-82
2022/01/02 13:13:08;;;;;;;3.70;3.40;;;12.10;99.90;;;;;;5053946;28;20446;-81
2022/01/02 13:15:36;;;;;;;10.50;9.80;;;12.20;99.90;;;;;;5053815;28;20731;-81
2022/01/02 13:18:08;;;;;;;11.50;10.90;;;12.20;99.90;;;;;;5047564;28;20188;-81
2022/01/02 13:20:38;;;;;;;12.03;11.33;;;12.20;99.90;;;;;;5050824;28;20224;-81
2022/01/02 13:23:07;;;;;;;11.90;11.20;;;12.10;99.90;;;;;;5054821;28;20196;-81
2022/01/02 13:25:36;;;;;;;12.30;11.60;;;12.10;99.90;;;;;;5049554;28;20752;-81
2022/01/02 13:28:04;;;;;;;11.63;10.93;;;12.10;99.90;;;;;;5046145;28;20279;-81
2022/01/02 13:30:37;;;;;;;11.90;11.20;;;12.10;99.90;;;;;;5044802;28;20209;-81
2022/01/02 13:33:16;;;;;;;12.30;11.60;;;12.10;99.90;;;;;;5048615;28;20583;-81
2022/01/02 13:35:43;;;;;;;12.30;11.60;;;12.10;99.90;;;;;;5047192;28;20237;-81
2022/01/02 13:38:11;;;;;;;11.80;11.10;;;12.20;99.90;;;;;;5049066;28;20270;-79
2022/01/02 13:40:39;;;;;;;11.60;10.90;;;12.20;99.90;;;;;;5053205;28;20669;-80
2022/01/02 13:43:08;;;;;;;12.53;11.73;;;12.30;99.90;;;;;;5049382;28;20653;-80
2022/01/02 13:45:39;;;;;;;12.50;11.70;;;12.30;99.90;;;;;;5051542;28;20574;-80
2022/01/02 13:48:12;;;;;;;12.23;11.53;;;12.30;99.90;;;;;;5053266;28;20696;-80
2022/01/02 13:50:41;;;;;;;12.23;11.43;;;12.30;99.90;;;;;;5046335;28;20212;-80
2022/01/02 13:53:13;;;;;;;12.90;12.10;;;12.20;99.90;;;;;;5050856;28;20725;-80
2022/01/02 13:55:40;;;;;;;12.33;11.63;;;12.20;99.90;;;;;;5050218;28;20233;-80
2022/01/02 13:58:18;;;;;;;12.20;11.40;;;12.10;99.90;;;;;;5044482;28;20210;-80
2022/01/02 14:00:46;;;;;;;12.00;11.10;;;12.00;99.90;;;;;;5048853;28;20732;-80
2022/01/02 14:03:30;;;;;;;12.20;11.43;;;12.00;99.90;;;;;;5049331;28;20200;-80
2022/01/02 14:05:58;;;;;;;12.23;11.53;;;11.90;99.90;;;;;;5049795;28;20657;-80
2022/01/02 14:08:25;;;;;;;12.10;11.40;;;11.90;99.90;;;;;;5051758;28;20636;-81
2022/01/02 14:11:08;;;;;;;11.77;11.07;;;11.80;99.90;;;;;;5054889;28;20196;-81
2022/01/02 14:14:05;;;;;;;12.50;11.73;;;11.80;99.90;;;;;;5041416;28;20212;-81
2022/01/02 14:17:00;;;;;;;12.30;11.50;;;11.80;99.90;;;;;;5044589;28;20229;-81
2022/01/02 14:20:08;;;;;;;11.57;10.87;;;11.70;99.90;;;;;;5044919;28;20296;-82
2022/01/02 14:22:59;;;;;;;12.20;11.40;;;11.70;99.90;;;;;;5052348;28;20288;-82
2022/01/02 14:25:50;;;;;;;12.20;11.50;;;11.70;99.90;;;;;;5049583;28;20215;-82
2022/01/02 14:32:30;;;;;;;12.47;11.67;;;11.60;99.90;;;;;;5027866;28;20192;-81
2022/01/02 14:35:07;;;;;;;12.53;11.73;;;11.60;99.90;;;;;;5036920;28;20288;-82
2022/01/02 14:48:14;;;;;;;;;;;;;;;;;;;;;
2022/01/02 14:51:45;;;;;;;13.20;12.40;;;11.30;99.90;;;;;;5048718;28;20563;-82
2022/01/02 14:58:04;;;;;;;12.40;11.50;;;11.30;99.90;;;;;;5041732;28;20197;-82
2022/01/02 15:01:36;;;;;;;12.20;11.50;;;11.30;99.90;;;;;;5049683;28;20243;-82
2022/01/02 15:08:10;;;;;;;11.83;11.13;;;11.30;99.90;;;;;;5044231;28;20200;-82
2022/01/02 15:11:16;;;;;;;12.07;11.37;;;11.30;99.90;;;;;;5041656;28;20203;-85
2022/01/02 15:13:54;;;;;;;11.80;11.03;;;11.30;99.90;;;;;;5042058;28;20191;-82
2022/01/02 15:16:21;;;;;;;12.43;11.63;;;11.30;99.90;;;;;;5047469;28;20270;-82
2022/01/02 15:40:02;;;;;;;12.30;11.50;;;11.00;99.90;;;;;;4926185;29;20226;-83
2022/01/02 15:49:09;;;;;;;13.17;12.33;;;10.90;99.90;;;;;;5068741;28;20214;-82
2022/01/02 15:54:34;;;;;;;12.57;11.67;;;10.80;99.90;;;;;;5010653;28;20188;-79
2022/01/02 16:00:34;;;;;;;12.73;11.83;;;10.70;99.90;;;;;;5025567;28;20292;-80
2022/01/02 16:03:04;;;;;;;12.50;11.53;;;10.70;99.90;;;;;;5046866;28;20297;-81
2022/01/02 16:05:31;;;;;;;12.30;11.50;;;10.70;99.90;;;;;;5042695;28;20218;-81
2022/01/02 16:07:58;;;;;;;12.00;11.10;;;10.70;99.90;;;;;;5049704;28;20199;-81
2022/01/02 16:10:25;;;;;;;12.10;11.30;;;10.70;99.90;;;;;;5050536;28;20674;-81
2022/01/02 16:12:51;;;;;;;11.97;11.17;;;10.70;99.90;;;;;;5046746;28;20200;-82
2022/01/02 16:15:18;;;;;;;12.50;11.60;;;10.60;99.90;;;;;;5048735;28;20219;-79